Time;durP1;ratioP1;P1;durP2;ratioP2;P2;SDS_P1;SDS_P2;PMS_P1;PMS_P2;Temp;Humidity;BMP_temperature;BMP_pressure;BME280_temperature;BME280_humidity;BME280_pressure;Samples;Min_cycle;Max_cycle;Signal;HPM_P1;HPM_P2
2022/04/16 00:02:07;;;;;;;4.77;1.80;;;3.40;1.00;;;;;;5093980;28;20712;-85
2022/04/16 00:04:34;;;;;;;6.83;2.10;;;3.40;1.00;;;;;;5098596;28;20665;-83
2022/04/16 00:07:01;;;;;;;3.37;1.87;;;3.40;1.00;;;;;;5114271;28;20641;-83
2022/04/16 00:09:28;;;;;;;3.37;1.93;;;3.40;1.00;;;;;;5114485;28;20263;-84
2022/04/16 00:11:55;;;;;;;5.10;1.80;;;3.40;1.00;;;;;;5114586;28;20198;-83
2022/04/16 00:14:23;;;;;;;4.17;1.80;;;3.40;1.00;;;;;;5114427;28;20583;-85
2022/04/16 00:16:52;;;;;;;3.93;1.97;;;3.40;99.90;;;;;;5114442;28;20245;-84
2022/04/16 00:19:19;;;;;;;7.63;2.20;;;3.50;99.90;;;;;;5114613;28;20186;-84
2022/04/16 00:21:46;;;;;;;3.43;1.80;;;3.50;99.90;;;;;;5115031;28;20183;-84
2022/04/16 00:24:13;;;;;;;5.30;1.83;;;3.50;99.90;;;;;;5114233;28;20183;-84
2022/04/16 00:26:41;;;;;;;4.93;1.97;;;3.50;99.90;;;;;;5112552;28;20186;-84
2022/04/16 00:29:08;;;;;;;1.90;1.57;;;3.50;99.90;;;;;;5113484;28;20183;-85
2022/04/16 00:31:35;;;;;;;3.63;1.50;;;3.50;99.90;;;;;;5114246;28;20182;-83
2022/04/16 00:34:03;;;;;;;3.33;2.17;;;3.50;99.90;;;;;;5113735;28;20605;-83
2022/04/16 00:36:30;;;;;;;3.33;1.70;;;3.50;99.90;;;;;;5113677;28;20631;-85
2022/04/16 00:38:57;;;;;;;5.20;2.10;;;3.50;99.90;;;;;;5114062;28;20218;-84
2022/04/16 00:41:24;;;;;;;3.23;1.60;;;3.50;99.90;;;;;;5113851;28;20236;-84
2022/04/16 00:43:52;;;;;;;3.87;2.00;;;3.50;99.90;;;;;;5103447;28;20196;-84
2022/04/16 00:46:19;;;;;;;6.57;2.13;;;3.50;99.90;;;;;;5093346;28;20631;-84
2022/04/16 00:48:46;;;;;;;3.43;1.70;;;3.50;99.90;;;;;;5093742;28;20197;-84
2022/04/16 00:51:15;;;;;;;6.47;1.93;;;3.50;99.90;;;;;;5093012;28;20195;-85
2022/04/16 00:53:43;;;;;;;3.77;2.00;;;3.40;99.90;;;;;;5093314;28;20202;-83
2022/04/16 00:56:11;;;;;;;2.50;1.70;;;3.40;84.00;;;;;;5096667;28;20178;-85
2022/04/16 00:58:39;;;;;;;3.23;1.90;;;3.40;90.60;;;;;;5113645;28;20273;-85
2022/04/16 01:01:06;;;;;;;3.97;1.80;;;3.40;51.80;;;;;;5112263;28;20271;-83
2022/04/16 01:03:33;;;;;;;3.93;1.90;;;3.40;8.70;;;;;;5113213;28;20580;-85
2022/04/16 01:06:01;;;;;;;2.13;1.40;;;3.40;1.00;;;;;;5112758;28;20191;-84
2022/04/16 01:08:29;;;;;;;3.80;1.60;;;3.30;1.00;;;;;;5113484;28;20187;-83
2022/04/16 01:10:56;;;;;;;5.10;1.50;;;3.20;1.00;;;;;;5113494;28;20190;-84
2022/04/16 01:13:23;;;;;;;3.43;1.50;;;3.10;1.00;;;;;;5113306;28;20590;-83
2022/04/16 01:15:50;;;;;;;2.83;1.50;;;3.00;1.00;;;;;;5113722;28;20597;-83
2022/04/16 01:18:17;;;;;;;4.90;1.70;;;2.90;1.00;;;;;;5112919;28;20609;-84
2022/04/16 01:20:44;;;;;;;2.77;1.60;;;2.80;1.00;;;;;;5112825;28;20217;-84
2022/04/16 01:23:15;;;;;;;4.63;1.83;;;2.70;1.00;;;;;;5113187;28;20190;-84
2022/04/16 01:25:44;;;;;;;5.47;2.27;;;2.60;1.00;;;;;;5113500;28;20188;-83
2022/04/16 01:28:12;;;;;;;2.70;1.90;;;2.50;1.00;;;;;;5110675;28;20194;-84
2022/04/16 01:30:39;;;;;;;3.00;1.80;;;2.40;1.00;;;;;;5113060;28;20199;-84
2022/04/16 01:33:06;;;;;;;2.23;1.57;;;2.30;1.00;;;;;;5112707;28;20707;-84
2022/04/16 01:35:34;;;;;;;2.67;1.93;;;2.30;1.00;;;;;;5113092;28;20190;-84
2022/04/16 01:38:04;;;;;;;2.50;1.77;;;2.20;1.00;;;;;;5112818;28;20226;-85
2022/04/16 01:40:33;;;;;;;3.37;1.60;;;2.20;19.30;;;;;;5112491;28;20604;-84
2022/04/16 01:43:00;;;;;;;4.40;1.53;;;2.20;24.70;;;;;;5112954;28;20182;-83
2022/04/16 01:45:27;;;;;;;3.57;1.70;;;2.10;28.90;;;;;;5112843;28;20217;-84
2022/04/16 01:47:59;;;;;;;2.80;2.00;;;2.10;58.10;;;;;;5113141;28;20186;-84
2022/04/16 01:50:26;;;;;;;5.77;1.83;;;2.10;61.40;;;;;;5112964;28;20218;-85
2022/04/16 01:52:54;;;;;;;4.53;1.60;;;2.00;91.60;;;;;;5112829;28;20699;-84
2022/04/16 01:55:21;;;;;;;4.30;1.70;;;2.00;99.90;;;;;;5113026;28;20186;-83
2022/04/16 01:57:50;;;;;;;3.47;1.70;;;2.00;99.90;;;;;;5099520;28;20186;-85
2022/04/16 02:00:19;;;;;;;4.77;1.53;;;1.90;99.90;;;;;;5093315;28;20210;-84
2022/04/16 02:02:46;;;;;;;3.20;1.90;;;1.90;99.90;;;;;;5112638;28;20553;-84
2022/04/16 02:05:13;;;;;;;2.53;1.70;;;1.90;99.90;;;;;;5112480;28;20190;-83
2022/04/16 02:07:41;;;;;;;4.20;2.13;;;1.90;99.90;;;;;;5112854;28;20190;-86
2022/04/16 02:10:09;;;;;;;4.90;1.60;;;1.80;99.90;;;;;;5099179;28;20187;-85
2022/04/16 02:12:38;;;;;;;5.00;1.90;;;1.80;99.90;;;;;;5093298;28;20261;-84
2022/04/16 02:15:08;;;;;;;2.27;1.33;;;1.80;99.90;;;;;;5096072;28;20252;-85
2022/04/16 02:17:35;;;;;;;2.40;1.53;;;1.70;99.90;;;;;;5096476;28;20176;-83
2022/04/16 02:20:03;;;;;;;6.10;1.70;;;1.70;99.90;;;;;;5096221;28;20320;-85
2022/04/16 02:22:39;;;;;;;5.00;1.70;;;1.60;99.90;;;;;;5096051;28;20586;-85
2022/04/16 02:25:08;;;;;;;3.43;1.70;;;1.60;99.90;;;;;;5096209;28;20179;-84
2022/04/16 02:27:35;;;;;;;6.70;1.90;;;1.60;99.90;;;;;;5106461;28;20186;-83
2022/04/16 02:30:02;;;;;;;4.80;1.87;;;1.60;99.90;;;;;;5116150;28;20186;-84
2022/04/16 02:32:31;;;;;;;5.00;1.70;;;1.50;99.90;;;;;;5116235;28;20232;-85
2022/04/16 02:34:58;;;;;;;3.90;1.50;;;1.50;99.90;;;;;;5116546;28;20190;-85
2022/04/16 02:37:25;;;;;;;3.60;1.90;;;1.50;99.90;;;;;;5116677;28;20225;-85
2022/04/16 02:39:52;;;;;;;8.70;2.70;;;1.50;99.90;;;;;;5116534;28;20666;-85
2022/04/16 02:42:19;;;;;;;4.13;1.80;;;1.50;99.90;;;;;;5116212;28;20186;-84
2022/04/16 02:47:32;;;;;;;2.83;1.80;;;1.50;99.90;;;;;;5116046;28;20166;-86
2022/04/16 02:49:59;;;;;;;5.13;2.10;;;1.50;99.90;;;;;;5116315;28;20212;-86
2022/04/16 02:52:26;;;;;;;5.33;3.03;;;1.40;99.90;;;;;;5116399;28;20234;-84
2022/04/16 02:54:53;;;;;;;2.93;1.60;;;1.40;99.90;;;;;;5116056;28;20191;-84
2022/04/16 02:57:20;;;;;;;3.27;1.80;;;1.40;99.90;;;;;;5106949;28;20715;-84
2022/04/16 02:59:47;;;;;;;3.87;2.00;;;1.40;99.90;;;;;;5095513;28;20245;-83
2022/04/16 03:02:15;;;;;;;3.03;1.60;;;1.40;99.90;;;;;;5095453;28;20215;-84
2022/04/16 03:04:43;;;;;;;4.77;2.03;;;1.40;1.00;;;;;;5095575;28;20190;-84
2022/04/16 03:07:10;;;;;;;4.60;2.13;;;1.40;1.00;;;;;;5115745;28;20600;-85
2022/04/16 03:09:37;;;;;;;4.50;1.83;;;1.40;1.00;;;;;;5115790;28;20216;-84
2022/04/16 03:12:05;;;;;;;2.70;1.80;;;1.40;1.00;;;;;;5115447;28;20190;-84
2022/04/16 03:17:35;;;;;;;2.90;1.60;;;1.40;1.00;;;;;;5105010;28;20527;-84
2022/04/16 03:20:06;;;;;;;2.07;1.50;;;1.40;1.00;;;;;;5095152;28;20183;-84
2022/04/16 03:22:33;;;;;;;3.10;1.80;;;1.40;1.00;;;;;;5095286;28;20256;-84
2022/04/16 03:25:03;;;;;;;4.10;2.50;;;1.40;1.00;;;;;;5094265;28;20188;-85
2022/04/16 03:27:30;;;;;;;5.30;1.83;;;1.50;1.00;;;;;;5094938;28;20191;-84
2022/04/16 03:29:57;;;;;;;2.50;1.80;;;1.50;1.00;;;;;;5095391;28;20628;-85
2022/04/16 03:32:24;;;;;;;2.93;1.90;;;1.50;1.00;;;;;;5094620;28;20606;-84
2022/04/16 03:34:51;;;;;;;4.20;2.17;;;1.60;1.00;;;;;;5094609;28;20710;-86
2022/04/16 03:37:19;;;;;;;10.70;5.73;;;1.60;1.00;;;;;;5106737;28;20213;-84
2022/04/16 03:39:46;;;;;;;4.67;2.67;;;1.70;1.00;;;;;;5115310;28;20322;-84
2022/04/16 03:42:13;;;;;;;5.50;2.43;;;1.70;1.00;;;;;;5114665;28;20536;-83
2022/04/16 03:44:40;;;;;;;3.73;2.30;;;1.80;1.00;;;;;;5114848;28;20520;-85
2022/04/16 03:47:07;;;;;;;3.37;2.17;;;1.90;1.00;;;;;;5115071;28;20187;-86
2022/04/16 03:49:34;;;;;;;5.03;2.10;;;1.90;1.00;;;;;;5114727;28;20576;-84
2022/04/16 03:52:01;;;;;;;2.43;1.67;;;2.00;1.00;;;;;;5115174;28;20199;-85
2022/04/16 04:00:01;;;;;;;5.07;2.10;;;2.20;13.40;;;;;;5114946;28;20171;-84
2022/04/16 04:02:29;;;;;;;4.67;1.97;;;2.20;21.80;;;;;;5114519;28;20222;-85
2022/04/16 04:04:56;;;;;;;3.53;2.00;;;2.30;45.20;;;;;;5114766;28;20243;-85
2022/04/16 04:07:25;;;;;;;5.60;2.10;;;2.30;72.40;;;;;;5112512;28;20198;-84
2022/04/16 04:09:54;;;;;;;4.83;2.00;;;2.40;95.30;;;;;;5114919;28;20247;-85
2022/04/16 04:12:21;;;;;;;8.40;3.93;;;2.50;90.10;;;;;;5114602;28;20240;-84
2022/04/16 04:14:48;;;;;;;4.53;2.23;;;2.50;56.20;;;;;;5114633;28;20216;-84
2022/04/16 04:17:16;;;;;;;5.47;2.13;;;2.60;25.40;;;;;;5114423;28;20259;-84
2022/04/16 04:19:44;;;;;;;4.20;2.20;;;2.60;5.10;;;;;;5114151;28;20639;-85
2022/04/16 04:22:12;;;;;;;3.23;2.00;;;2.60;1.00;;;;;;5114269;28;20211;-86
2022/04/16 04:24:41;;;;;;;3.87;2.20;;;2.60;1.00;;;;;;5114383;28;20182;-84
2022/04/16 04:27:09;;;;;;;4.53;2.40;;;2.70;1.00;;;;;;5114066;28;20190;-84
2022/04/16 04:29:37;;;;;;;7.07;3.20;;;2.70;1.00;;;;;;5113887;28;20240;-85
2022/04/16 04:32:05;;;;;;;6.77;4.23;;;2.70;1.00;;;;;;5114269;28;20182;-84
2022/04/16 04:34:32;;;;;;;8.87;4.83;;;2.70;1.00;;;;;;5114355;28;20224;-84
2022/04/16 04:36:59;;;;;;;8.20;5.07;;;2.70;1.00;;;;;;5104779;28;20230;-85
2022/04/16 04:39:26;;;;;;;10.13;5.80;;;2.80;1.00;;;;;;5093547;28;20223;-85
2022/04/16 04:41:53;;;;;;;10.00;6.60;;;2.80;1.00;;;;;;5093196;28;20755;-84
2022/04/16 04:44:22;;;;;;;16.20;9.07;;;2.90;1.00;;;;;;5093646;28;20689;-86
2022/04/16 04:46:49;;;;;;;16.17;9.93;;;3.00;1.00;;;;;;5093161;28;20635;-84
2022/04/16 04:49:16;;;;;;;12.70;7.97;;;3.00;1.00;;;;;;5093557;28;20568;-86
2022/04/16 04:51:43;;;;;;;11.10;6.20;;;3.10;1.00;;;;;;5093635;28;20201;-85
2022/04/16 04:54:10;;;;;;;8.13;5.13;;;3.20;1.00;;;;;;5093671;28;20187;-86
2022/04/16 04:56:37;;;;;;;11.93;5.63;;;3.20;1.00;;;;;;5092989;28;20191;-84
2022/04/16 04:59:04;;;;;;;8.33;5.53;;;3.30;1.00;;;;;;5093686;28;20552;-85
2022/04/16 05:01:33;;;;;;;7.87;5.67;;;3.40;1.00;;;;;;5093052;28;20736;-85
2022/04/16 05:04:00;;;;;;;10.30;6.20;;;3.50;1.00;;;;;;5093353;28;20222;-84
2022/04/16 05:06:27;;;;;;;12.47;7.70;;;3.60;1.00;;;;;;5097007;28;20184;-84
2022/04/16 05:08:54;;;;;;;12.17;8.73;;;3.70;1.00;;;;;;5113591;28;20229;-84
2022/04/16 05:11:21;;;;;;;11.20;7.40;;;4.10;99.90;;;;;;5113515;28;20596;-85
2022/04/16 05:13:48;;;;;;;10.87;7.33;;;4.50;99.90;;;;;;5113121;28;20216;-87
2022/04/16 05:16:15;;;;;;;8.10;6.07;;;4.90;1.00;;;;;;5112705;28;20239;-86
2022/04/16 05:18:44;;;;;;;4.37;3.03;;;5.50;1.00;;;;;;5113418;28;20242;-88
2022/04/16 05:21:11;;;;;;;4.37;2.90;;;6.80;99.90;;;;;;5112904;28;20240;-88
2022/04/16 05:23:39;;;;;;;;;;;8.10;1.00;;;;;;5113285;28;20236;-87
2022/04/16 05:26:08;;;;;;;3.90;2.10;;;9.30;1.00;;;;;;5113117;28;20373;-85
2022/04/16 05:28:35;;;;;;;6.70;2.20;;;10.50;1.00;;;;;;5113475;28;20219;-86
2022/04/16 05:31:02;;;;;;;;;;;11.40;99.90;;;;;;5113543;28;20093;-87
2022/04/16 05:36:16;;;;;;;2.03;1.00;;;13.30;1.00;;;;;;5110129;28;20849;-86
2022/04/16 05:38:43;;;;;;;2.92;1.27;;;14.00;99.90;;;;;;5092430;28;20215;-84
2022/04/16 05:41:10;;;;;;;3.22;1.25;;;14.60;66.70;;;;;;5092215;28;20667;-82
2022/04/16 05:43:37;;;;;;;2.58;1.27;;;14.90;1.00;;;;;;5092908;28;20194;-83
2022/04/16 05:46:04;;;;;;;1.98;1.08;;;14.90;1.00;;;;;;5092848;28;20191;-84
2022/04/16 05:48:31;;;;;;;3.70;1.38;;;15.10;1.00;;;;;;5092124;28;20191;-84
2022/04/16 05:50:58;;;;;;;2.97;1.33;;;15.50;1.00;;;;;;5092772;28;20762;-83
2022/04/16 05:53:27;;;;;;;2.78;1.20;;;15.90;1.00;;;;;;5092470;28;20171;-83
2022/04/16 05:55:54;;;;;;;2.67;1.42;;;16.30;1.00;;;;;;5092330;28;20248;-83
2022/04/16 05:58:21;;;;;;;4.50;1.40;;;16.70;1.00;;;;;;5092513;28;20246;-83
2022/04/16 06:00:49;;;;;;;2.80;1.13;;;17.10;1.00;;;;;;5092252;28;20635;-82
2022/04/16 06:03:16;;;;;;;6.60;4.00;;;17.60;1.00;;;;;;5092173;28;20218;-85
2022/04/16 06:05:43;;;;;;;2.47;1.67;;;17.90;1.00;;;;;;5092345;28;20195;-84
2022/04/16 06:08:10;;;;;;;2.50;1.30;;;18.00;1.00;;;;;;5108855;28;20183;-80
2022/04/16 06:10:38;;;;;;;;;;;18.40;1.00;;;;;;5113364;28;20113;-84
2022/04/16 06:13:06;;;;;;;2.80;1.20;;;18.10;1.00;;;;;;5112693;28;20676;-83
2022/04/16 06:15:33;;;;;;;3.22;1.20;;;17.70;1.00;;;;;;5112382;28;20183;-84
2022/04/16 06:18:00;;;;;;;;;;;17.40;1.00;;;;;;5112528;28;20691;-81
2022/04/16 06:20:27;;;;;;;3.42;1.30;;;17.50;1.00;;;;;;5112315;28;20416;-83
2022/04/16 06:22:53;;;;;;;1.83;1.13;;;17.70;1.00;;;;;;5112564;28;20215;-82
2022/04/16 06:25:20;;;;;;;3.15;1.05;;;18.10;1.00;;;;;;5112697;28;20251;-81
2022/04/16 06:27:49;;;;;;;2.97;1.15;;;17.60;1.00;;;;;;5112314;28;20191;-82
2022/04/16 06:30:16;;;;;;;2.53;1.30;;;17.10;1.00;;;;;;5112535;28;20182;-83
2022/04/16 06:32:43;;;;;;;2.85;1.20;;;16.80;1.00;;;;;;5112552;28;20277;-81
2022/04/16 06:35:12;;;;;;;2.67;1.20;;;16.30;1.00;;;;;;5112338;28;20194;-82
2022/04/16 06:37:42;;;;;;;2.95;1.20;;;16.10;1.00;;;;;;5112044;28;20574;-83
2022/04/16 06:40:10;;;;;;;1.90;1.20;;;16.10;1.00;;;;;;5096393;28;20620;-83
2022/04/16 06:42:38;;;;;;;3.42;1.40;;;16.20;1.00;;;;;;5091888;28;20261;-83
2022/04/16 06:45:09;;;;;;;2.38;1.30;;;16.10;1.00;;;;;;5091840;28;20639;-82
2022/04/16 06:47:36;;;;;;;2.22;1.38;;;15.70;1.00;;;;;;5092267;28;20249;-82
2022/04/16 06:50:05;;;;;;;2.30;0.90;;;15.50;1.00;;;;;;5091683;28;20191;-82
2022/04/16 06:52:32;;;;;;;3.97;1.30;;;15.80;1.00;;;;;;5091931;28;20199;-81
2022/04/16 06:55:00;;;;;;;3.40;1.20;;;16.40;1.00;;;;;;5091705;28;20520;-82
2022/04/16 06:57:27;;;;;;;2.17;1.08;;;17.00;1.00;;;;;;5091903;28;20248;-82
2022/04/16 06:59:54;;;;;;;2.47;1.23;;;17.60;1.00;;;;;;5093219;28;20203;-83
2022/04/16 07:02:22;;;;;;;3.10;1.05;;;17.90;1.00;;;;;;5094654;28;20208;-82
2022/04/16 07:04:50;;;;;;;3.08;1.33;;;17.60;1.00;;;;;;5095078;28;20705;-82
2022/04/16 07:07:17;;;;;;;1.92;1.27;;;17.30;1.00;;;;;;5096082;28;20184;-83
2022/04/16 07:09:44;;;;;;;2.17;1.27;;;17.20;1.00;;;;;;5095551;28;20191;-82
2022/04/16 07:12:11;;;;;;;3.72;1.50;;;17.60;1.00;;;;;;5109785;28;20647;-84
2022/04/16 07:14:39;;;;;;;2.72;1.25;;;18.10;1.00;;;;;;5115672;28;20186;-84
2022/04/16 07:17:07;;;;;;;3.38;1.20;;;18.50;1.00;;;;;;5115391;28;20228;-82
2022/04/16 07:19:36;;;;;;;1.92;1.27;;;19.30;1.00;;;;;;5115432;28;20194;-83
2022/04/16 07:22:04;;;;;;;2.25;1.15;;;20.10;1.00;;;;;;5101355;28;20212;-82
2022/04/16 07:24:31;;;;;;;2.28;1.10;;;20.50;1.00;;;;;;5094727;28;20589;-84
2022/04/16 07:26:58;;;;;;;1.35;1.00;;;20.70;1.00;;;;;;5095022;28;20195;-83
2022/04/16 07:29:26;;;;;;;2.00;1.20;;;21.00;1.00;;;;;;5094949;28;20585;-83
2022/04/16 07:31:54;;;;;;;2.72;1.10;;;21.20;1.00;;;;;;5095071;28;20191;-83
2022/04/16 07:34:21;;;;;;;2.70;1.15;;;21.00;1.00;;;;;;5094916;28;20188;-82
2022/04/16 07:36:50;;;;;;;1.65;0.93;;;20.90;1.00;;;;;;5096807;28;20203;-81
2022/04/16 07:39:17;;;;;;;2.33;1.20;;;21.10;1.00;;;;;;5093807;28;20755;-81
2022/04/16 07:41:44;;;;;;;2.03;1.10;;;21.40;1.00;;;;;;5093471;28;20207;-83
2022/04/16 07:44:11;;;;;;;2.10;1.10;;;21.60;1.00;;;;;;5094611;28;20191;-81
2022/04/16 07:46:38;;;;;;;3.10;1.13;;;21.50;1.00;;;;;;5096660;28;20253;-82
2022/04/16 07:49:05;;;;;;;4.60;1.30;;;21.30;1.00;;;;;;5093769;28;20615;-82
2022/04/16 07:51:32;;;;;;;2.58;1.25;;;21.00;1.00;;;;;;5093896;28;20184;-82
2022/04/16 07:54:00;;;;;;;1.40;1.10;;;20.50;1.00;;;;;;5093998;28;20187;-82
2022/04/16 07:56:28;;;;;;;2.60;1.20;;;19.70;1.00;;;;;;5094062;28;20639;-82
2022/04/16 07:58:55;;;;;;;2.10;0.88;;;19.50;1.00;;;;;;5094573;28;20237;-83
2022/04/16 08:01:22;;;;;;;2.15;1.08;;;19.80;1.00;;;;;;5094027;28;20598;-83
2022/04/16 08:03:50;;;;;;;2.28;1.17;;;20.10;1.00;;;;;;5093790;28;20237;-83
2022/04/16 08:06:17;;;;;;;1.65;0.90;;;20.30;1.00;;;;;;5096054;28;20245;-83
2022/04/16 08:08:44;;;;;;;3.35;1.08;;;20.40;1.00;;;;;;5093112;28;20179;-82
2022/04/16 08:11:13;;;;;;;3.40;1.00;;;20.10;1.00;;;;;;5093052;28;20272;-83
2022/04/16 08:13:40;;;;;;;1.85;1.00;;;19.80;1.00;;;;;;5095553;28;20184;-83
2022/04/16 08:16:07;;;;;;;1.85;1.00;;;19.70;1.00;;;;;;5102905;27;20251;-84
2022/04/16 08:18:34;;;;;;;1.42;1.00;;;19.40;1.00;;;;;;5113242;27;20187;-84
2022/04/16 08:21:01;;;;;;;2.30;1.00;;;19.20;1.00;;;;;;5113386;28;20216;-82
2022/04/16 08:23:29;;;;;;;2.15;0.90;;;19.40;1.00;;;;;;5100479;28;20207;-83
2022/04/16 08:25:56;;;;;;;1.08;0.80;;;19.40;1.00;;;;;;5095841;28;20180;-83
2022/04/16 08:28:25;;;;;;;1.50;0.90;;;19.20;1.00;;;;;;5092636;28;20217;-83
2022/04/16 08:30:54;;;;;;;1.25;0.80;;;19.20;1.00;;;;;;5092708;28;20624;-84
2022/04/16 08:33:21;;;;;;;1.58;0.77;;;19.40;1.00;;;;;;5101987;27;20665;-83
2022/04/16 08:35:49;;;;;;;2.17;0.80;;;19.80;1.00;;;;;;5111946;28;20198;-83
2022/04/16 08:38:16;;;;;;;1.83;0.85;;;20.10;1.00;;;;;;5110168;28;20339;-85
2022/04/16 08:40:43;;;;;;;1.92;0.80;;;20.40;1.00;;;;;;5112820;27;20183;-83
2022/04/16 08:43:10;;;;;;;1.30;0.75;;;20.60;1.00;;;;;;5103457;27;20261;-82
2022/04/16 08:45:41;;;;;;;1.33;0.85;;;20.20;1.00;;;;;;5114030;28;20183;-83
2022/04/16 08:48:09;;;;;;;1.98;0.90;;;20.10;1.00;;;;;;5113902;27;20227;-82
2022/04/16 08:50:38;;;;;;;1.90;0.70;;;20.00;1.00;;;;;;5115036;28;20264;-83
2022/04/16 08:53:05;;;;;;;1.83;0.85;;;20.10;1.00;;;;;;5115992;27;20190;-82
2022/04/16 08:55:33;;;;;;;1.67;0.60;;;20.30;1.00;;;;;;5100562;28;20192;-83
2022/04/16 08:58:00;;;;;;;1.30;0.80;;;20.00;1.00;;;;;;5098010;28;20262;-82
2022/04/16 09:00:27;;;;;;;3.15;0.90;;;19.50;1.00;;;;;;5097029;28;20705;-83
2022/04/16 09:02:57;;;;;;;2.05;0.93;;;19.20;1.00;;;;;;5095881;28;20207;-82
2022/04/16 09:05:26;;;;;;;1.75;0.80;;;18.90;1.00;;;;;;5102659;27;20260;-83
2022/04/16 09:07:55;;;;;;;1.65;0.80;;;18.50;1.00;;;;;;5094884;28;20192;-83
2022/04/16 09:10:25;;;;;;;2.75;0.77;;;18.20;1.00;;;;;;5094662;28;20184;-84
2022/04/16 09:12:53;;;;;;;2.15;1.02;;;17.90;1.00;;;;;;5116542;27;20227;-84
2022/04/16 09:15:20;;;;;;;1.60;0.90;;;17.70;1.00;;;;;;5136083;27;20186;-83
2022/04/16 09:17:59;;;;;;;1.95;0.80;;;17.50;1.00;;;;;;5135904;27;20578;-82
2022/04/16 09:20:34;;;;;;;1.70;0.77;;;17.50;1.00;;;;;;5136765;27;20190;-83
2022/04/16 09:23:02;;;;;;;0.63;0.60;;;17.70;1.00;;;;;;5135689;27;20657;-82
2022/04/16 09:25:31;;;;;;;1.13;0.52;;;17.60;1.00;;;;;;5136125;27;20190;-84
2022/04/16 09:28:05;;;;;;;3.28;0.70;;;17.50;1.00;;;;;;5136383;27;20199;-83
2022/04/16 09:30:33;;;;;;;1.42;0.90;;;17.60;1.00;;;;;;5102059;27;20188;-82
2022/04/16 09:33:02;;;;;;;1.85;0.80;;;17.50;1.00;;;;;;5116182;28;20547;-83
2022/04/16 09:35:32;;;;;;;0.75;0.70;;;17.40;1.00;;;;;;5116491;28;20183;-84
2022/04/16 09:38:00;;;;;;;1.00;0.82;;;17.30;1.00;;;;;;5116953;28;20288;-83
2022/04/16 09:40:29;;;;;;;3.65;1.00;;;17.10;1.00;;;;;;5113798;28;20167;-84
2022/04/16 09:42:58;;;;;;;1.95;0.93;;;17.00;1.00;;;;;;5092005;28;20673;-83
2022/04/16 09:45:26;;;;;;;1.63;0.90;;;16.60;1.00;;;;;;5103102;28;20201;-84
2022/04/16 09:47:53;;;;;;;2.43;1.00;;;16.20;1.00;;;;;;5092437;28;20581;-83
2022/04/16 09:50:23;;;;;;;2.27;0.90;;;15.80;1.00;;;;;;5092086;28;20248;-85
2022/04/16 09:52:55;;;;;;;1.73;1.40;;;15.60;1.00;;;;;;5094170;28;20218;-83
2022/04/16 09:55:23;;;;;;;0.80;0.80;;;15.60;1.00;;;;;;5103185;28;20579;-82
2022/04/16 09:57:53;;;;;;;1.87;1.00;;;15.70;1.00;;;;;;5106416;28;20195;-83
2022/04/16 10:00:21;;;;;;;1.60;0.70;;;15.60;1.00;;;;;;5090757;28;20186;-84
2022/04/16 10:02:49;;;;;;;1.30;1.00;;;15.70;1.00;;;;;;5100511;28;20296;-85
2022/04/16 10:05:17;;;;;;;2.27;1.00;;;15.70;1.00;;;;;;5111326;28;20634;-84
2022/04/16 10:07:46;;;;;;;1.27;0.80;;;15.60;1.00;;;;;;5124603;28;20605;-83
2022/04/16 10:10:25;;;;;;;1.73;1.00;;;15.30;1.00;;;;;;5131592;28;20187;-84
2022/04/16 10:13:00;;;;;;;2.30;1.00;;;15.00;1.00;;;;;;5090451;28;20171;-84
2022/04/16 10:15:39;;;;;;;1.33;0.90;;;14.70;1.00;;;;;;5090200;28;20320;-84
2022/04/16 10:18:06;;;;;;;2.17;1.17;;;14.40;1.00;;;;;;5090949;28;20566;-83
2022/04/16 10:20:33;;;;;;;1.33;0.77;;;14.30;1.00;;;;;;5090749;28;20245;-83
2022/04/16 10:23:03;;;;;;;1.97;0.90;;;14.30;1.00;;;;;;5090691;28;20273;-83
2022/04/16 10:25:35;;;;;;;4.90;1.20;;;14.40;1.00;;;;;;5090866;28;20184;-83
2022/04/16 10:28:05;;;;;;;2.03;1.37;;;14.50;1.00;;;;;;5114686;28;20183;-82
2022/04/16 10:30:41;;;;;;;3.20;1.70;;;14.20;1.00;;;;;;5111256;28;20193;-85
2022/04/16 10:33:19;;;;;;;1.73;1.00;;;13.90;1.00;;;;;;5107252;28;20273;-83
2022/04/16 10:35:54;;;;;;;5.10;1.50;;;14.00;1.00;;;;;;5111512;28;20187;-82
2022/04/16 10:38:27;;;;;;;2.23;1.10;;;14.10;1.00;;;;;;5112402;27;20239;-83
2022/04/16 10:40:58;;;;;;;2.87;1.70;;;14.10;1.00;;;;;;5114111;28;20190;-83
2022/04/16 10:43:28;;;;;;;1.63;0.90;;;14.00;1.00;;;;;;5123868;27;20705;-83
2022/04/16 10:46:02;;;;;;;3.40;1.23;;;13.80;1.00;;;;;;5135588;27;20233;-82
2022/04/16 10:48:31;;;;;;;3.03;0.97;;;13.60;1.00;;;;;;5135350;27;20261;-84
2022/04/16 10:50:59;;;;;;;1.90;1.17;;;13.50;1.00;;;;;;5136030;27;20243;-83
2022/04/16 10:53:32;;;;;;;2.97;1.27;;;13.40;1.00;;;;;;5135290;27;20224;-83
2022/04/16 10:56:11;;;;;;;2.90;1.00;;;13.40;1.00;;;;;;5103536;27;20197;-82
2022/04/16 10:58:40;;;;;;;2.40;1.10;;;13.30;1.00;;;;;;5123806;27;20187;-83
2022/04/16 11:01:09;;;;;;;3.00;1.20;;;13.30;1.00;;;;;;5094457;28;20699;-83
2022/04/16 11:03:45;;;;;;;2.43;1.40;;;13.40;1.00;;;;;;5094981;28;20271;-83
2022/04/16 11:06:13;;;;;;;0.90;0.70;;;13.40;1.00;;;;;;5094417;28;20195;-82
2022/04/16 11:08:42;;;;;;;4.40;1.73;;;13.40;1.00;;;;;;5094235;28;20182;-84
2022/04/16 11:11:10;;;;;;;5.27;2.80;;;13.30;1.00;;;;;;5134899;27;20185;-83
2022/04/16 11:13:38;;;;;;;4.27;2.53;;;13.40;1.00;;;;;;5135246;27;20696;-83
2022/04/16 11:16:08;;;;;;;6.57;3.60;;;13.50;1.00;;;;;;5136256;27;20194;-83
2022/04/16 11:18:45;;;;;;;1.73;1.17;;;13.70;1.00;;;;;;5104203;27;20188;-83
2022/04/16 11:21:13;;;;;;;2.23;1.37;;;13.80;1.00;;;;;;5094909;28;20179;-85
2022/04/16 11:23:43;;;;;;;3.30;1.63;;;13.60;1.00;;;;;;5128493;27;20345;-83
2022/04/16 11:34:27;;;;;;;10.23;3.77;;;13.60;1.00;;;;;;5135811;27;20579;-83
2022/04/16 11:36:54;;;;;;;1.63;1.00;;;13.70;1.00;;;;;;5135830;27;20239;-85
2022/04/16 11:39:24;;;;;;;2.07;1.10;;;13.60;1.00;;;;;;5135663;27;20214;-83
2022/04/16 11:41:53;;;;;;;2.23;1.07;;;13.60;1.00;;;;;;5135944;27;20204;-84
2022/04/16 11:44:41;;;;;;;1.43;0.90;;;13.50;1.00;;;;;;5135610;27;20214;-85
2022/04/16 11:47:12;;;;;;;1.53;1.20;;;13.50;1.00;;;;;;5135275;27;20184;-84
2022/04/16 11:49:41;;;;;;;2.00;1.00;;;13.50;1.00;;;;;;5135314;27;20181;-83
2022/04/16 11:52:10;;;;;;;3.27;1.30;;;13.40;1.00;;;;;;5132036;27;20185;-85
2022/04/16 11:54:39;;;;;;;3.27;1.87;;;13.40;1.00;;;;;;5114602;28;20296;-84
2022/04/16 11:57:07;;;;;;;3.27;2.30;;;13.30;1.00;;;;;;5113837;27;20189;-84
2022/04/16 11:59:35;;;;;;;1.87;1.30;;;13.20;1.00;;;;;;5113527;28;20194;-83
2022/04/16 12:02:08;;;;;;;4.33;1.70;;;13.30;1.00;;;;;;5114856;28;20391;-85
2022/04/16 12:04:40;;;;;;;2.90;1.30;;;13.40;1.00;;;;;;5114180;28;20591;-86
2022/04/16 12:07:12;;;;;;;2.40;1.10;;;13.40;1.00;;;;;;5114323;28;20177;-83
2022/04/16 12:09:47;;;;;;;1.37;1.17;;;13.50;1.00;;;;;;5114534;28;20231;-86
2022/04/16 12:12:18;;;;;;;4.53;1.90;;;13.60;1.00;;;;;;5114406;28;20629;-85
2022/04/16 12:14:47;;;;;;;8.43;1.70;;;13.60;1.00;;;;;;5128703;27;20182;-86
2022/04/16 12:17:25;;;;;;;3.23;1.30;;;13.60;1.00;;;;;;5127709;27;20187;-86
2022/04/16 12:20:02;;;;;;;4.30;1.20;;;13.60;1.00;;;;;;5114195;28;20228;-87
2022/04/16 12:22:29;;;;;;;2.53;1.20;;;13.70;1.00;;;;;;5113399;28;20266;-87
2022/04/16 12:25:08;;;;;;;1.30;1.03;;;13.90;1.00;;;;;;5113981;28;20694;-87
2022/04/16 12:27:35;;;;;;;2.10;1.00;;;13.90;1.00;;;;;;5114000;28;20626;-87
2022/04/16 12:30:04;;;;;;;3.03;1.20;;;14.00;1.00;;;;;;5113927;28;20713;-87
2022/04/16 12:32:31;;;;;;;5.93;1.30;;;14.00;1.00;;;;;;5113873;28;20192;-87
2022/04/16 12:34:59;;;;;;;2.40;1.43;;;14.00;1.00;;;;;;5114270;28;20582;-87
2022/04/16 12:37:26;;;;;;;3.50;1.30;;;13.80;1.00;;;;;;5114253;28;20213;-87
2022/04/16 12:39:53;;;;;;;5.83;2.03;;;13.70;1.00;;;;;;5114326;28;20281;-87
2022/04/16 12:42:22;;;;;;;11.20;1.87;;;13.80;1.00;;;;;;5114215;28;20249;-87
2022/04/16 12:44:49;;;;;;;3.03;1.50;;;13.90;1.00;;;;;;5128059;27;20198;-87
2022/04/16 12:47:16;;;;;;;8.43;2.63;;;14.10;1.00;;;;;;5134922;27;20187;-87
2022/04/16 12:49:43;;;;;;;6.37;1.90;;;14.20;1.00;;;;;;5134185;27;20187;-88
2022/04/16 12:52:10;;;;;;;11.93;6.50;;;14.10;1.00;;;;;;5134284;27;20635;-87
2022/04/16 12:54:37;;;;;;;4.13;2.03;;;14.00;1.00;;;;;;5134051;27;20194;-88
2022/04/16 12:57:04;;;;;;;1.97;1.33;;;14.10;1.00;;;;;;5134336;27;20581;-88
2022/04/16 12:59:33;;;;;;;4.13;1.20;;;14.20;1.00;;;;;;5134045;27;20637;-88
2022/04/16 13:02:00;;;;;;;5.97;1.40;;;14.40;1.00;;;;;;5134211;27;20187;-87
2022/04/16 13:04:29;;;;;;;3.10;1.20;;;14.40;1.00;;;;;;5133079;27;20271;-87
2022/04/16 13:06:56;;;;;;;3.37;1.80;;;14.40;1.00;;;;;;5134279;27;20214;-86
2022/04/16 13:09:23;;;;;;;3.57;2.10;;;14.40;1.00;;;;;;5133961;27;20195;-87
2022/04/16 13:11:51;;;;;;;4.80;1.80;;;14.30;1.00;;;;;;5134441;27;20627;-87
2022/04/16 13:14:18;;;;;;;2.90;1.20;;;14.20;1.00;;;;;;5130476;27;20183;-87
2022/04/16 13:16:47;;;;;;;2.63;1.33;;;14.10;1.00;;;;;;5133692;27;20639;-88
2022/04/16 13:19:15;;;;;;;4.40;2.90;;;14.10;1.00;;;;;;5115004;27;20187;-87
2022/04/16 13:21:43;;;;;;;7.10;3.53;;;14.00;1.00;;;;;;5113374;28;20198;-88
2022/04/16 13:24:15;;;;;;;4.57;2.00;;;13.90;1.00;;;;;;5113253;28;20217;-88
2022/04/16 13:26:44;;;;;;;3.73;1.40;;;13.90;1.00;;;;;;5113338;28;20605;-88
2022/04/16 13:29:12;;;;;;;3.30;1.83;;;14.00;1.00;;;;;;5112933;28;20225;-87